Sweet Water, Alabama
Current Conditions -  °F | °C
As of 4:15 AM on Monday 26 Jan 2015 (Local Time) from KDYA Reporting Station
Overcast Overcast  
Wind Chill: 41°   Ceiling: 3000
Heat Index: 47°   Visibility: 10mi
Dew Point: 34°   Wind: 13mph
Humidity: 61%   Direction: 310°NW
Pressure: 29.97"   Gusts: 18mph
Location:  32.1°N, 87.87°W
Report Text: KDYA 261015Z AUTO 31011G16KT 10SM OVC030 08/01 A2997 RMK AO2 T00810010
Loading
Personal Weather Stations






























Interactive Weather Map New forecast layout! Learn more

10-Day Weather Forecast

Advertisements
Track Severe Weather on mobile